Time;durP1;ratioP1;P1;durP2;ratioP2;P2;SDS_P1;SDS_P2;PMS_P1;PMS_P2;Temp;Humidity;BMP_temperature;BMP_pressure;BME280_temperature;BME280_humidity;BME280_pressure;Samples;Min_cycle;Max_cycle;Signal;HPM_P1;HPM_P2
2022/08/06 00:00:17;;;;;;;11.73;5.00;;;;;;;;;;6242283;23;20171;-91
2022/08/06 00:03:22;;;;;;;10.68;5.10;;;;;;;;;;6241371;23;20166;-90
2022/08/06 00:06:26;;;;;;;9.20;5.00;;;;;;;;;;6242858;22;20565;-92
2022/08/06 00:09:32;;;;;;;11.15;5.05;;;;;;;;;;6247519;22;20697;-92
2022/08/06 00:12:39;;;;;;;11.63;5.35;;;;;;;;;;6240958;23;20198;-91
2022/08/06 00:15:45;;;;;;;15.60;6.30;;;;;;;;;;6240404;23;20190;-91
2022/08/06 00:18:50;;;;;;;12.93;5.38;;;;;;;;;;6241221;23;20179;-90
2022/08/06 00:21:55;;;;;;;10.23;5.95;;;;;;;;;;6241828;23;20166;-91
2022/08/06 00:25:00;;;;;;;12.07;6.57;;;;;;;;;;6242024;22;20169;-92
2022/08/06 00:28:07;;;;;;;12.30;6.63;;;;;;;;;;6242788;22;20163;-93
2022/08/06 00:31:14;;;;;;;10.02;5.95;;;;;;;;;;6244618;23;20162;-91
2022/08/06 00:34:19;;;;;;;10.48;5.72;;;;;;;;;;6248358;23;20178;-92
2022/08/06 00:37:28;;;;;;;10.77;5.50;;;;;;;;;;6246434;23;20150;-92
2022/08/06 00:40:33;;;;;;;9.07;5.32;;;;;;;;;;6243169;22;20162;-92
2022/08/06 00:43:40;;;;;;;12.70;6.88;;;;;;;;;;6244401;23;20166;-93
2022/08/06 00:46:55;;;;;;;11.90;6.07;;;;;;;;;;6243138;23;20611;-92
2022/08/06 00:50:00;;;;;;;12.43;5.68;;;;;;;;;;6240965;23;20170;-92
2022/08/06 00:53:06;;;;;;;13.05;5.97;;;;;;;;;;6239702;23;20174;-92
2022/08/06 00:56:11;;;;;;;12.00;6.40;;;;;;;;;;6240428;23;20150;-92
2022/08/06 00:59:18;;;;;;;11.68;5.95;;;;;;;;;;6241231;23;20162;-91
2022/08/06 01:02:23;;;;;;;10.02;5.60;;;;;;;;;;6241049;23;20228;-92
2022/08/06 01:05:28;;;;;;;11.38;6.10;;;;;;;;;;6243504;23;20178;-90
2022/08/06 01:08:33;;;;;;;11.73;6.68;;;;;;;;;;6240385;23;20174;-92
2022/08/06 01:11:39;;;;;;;13.43;6.57;;;;;;;;;;6240466;23;20166;-92
2022/08/06 01:14:45;;;;;;;12.13;6.07;;;;;;;;;;6240097;23;20166;-91
2022/08/06 01:17:52;;;;;;;11.60;5.65;;;;;;;;;;6240230;22;20261;-91
2022/08/06 01:21:06;;;;;;;9.93;5.47;;;;;;;;;;6241276;23;20225;-92
2022/08/06 01:24:25;;;;;;;10.52;5.68;;;;;;;;;;6241394;23;20640;-91
2022/08/06 01:27:46;;;;;;;10.88;5.50;;;;;;;;;;6241723;23;20158;-91
2022/08/06 01:30:54;;;;;;;11.07;5.75;;;;;;;;;;6242726;23;20491;-92
2022/08/06 01:34:02;;;;;;;12.40;5.97;;;;;;;;;;6241391;23;20194;-92
2022/08/06 01:37:10;;;;;;;8.77;5.40;;;;;;;;;;6239677;23;20171;-92
2022/08/06 01:40:20;;;;;;;11.75;6.57;;;;;;;;;;6240145;22;20166;-92
2022/08/06 01:43:28;;;;;;;10.18;5.93;;;;;;;;;;6241758;22;20241;-93
2022/08/06 01:46:34;;;;;;;9.70;5.47;;;;;;;;;;6241982;23;20190;-91
2022/08/06 01:49:40;;;;;;;13.25;5.65;;;;;;;;;;6242082;23;20169;-91
2022/08/06 01:52:46;;;;;;;9.27;6.57;;;;;;;;;;6240248;23;20261;-91
2022/08/06 01:55:54;;;;;;;9.75;6.28;;;;;;;;;;6239591;23;20630;-92
2022/08/06 01:59:04;;;;;;;9.50;5.90;;;;;;;;;;6240629;23;20166;-90
2022/08/06 02:02:12;;;;;;;10.13;6.55;;;;;;;;;;6240853;22;20174;-91
2022/08/06 02:05:18;;;;;;;9.05;5.97;;;;;;;;;;6240951;23;20481;-91
2022/08/06 02:08:25;;;;;;;9.38;5.90;;;;;;;;;;6241117;23;20186;-90
2022/08/06 02:11:31;;;;;;;10.23;5.28;;;;;;;;;;6241138;23;20163;-93
2022/08/06 02:14:40;;;;;;;12.60;5.72;;;;;;;;;;6241832;23;20210;-91
2022/08/06 02:17:49;;;;;;;12.68;6.35;;;;;;;;;;6243607;22;20257;-91
2022/08/06 02:20:56;;;;;;;9.80;5.72;;;;;;;;;;6243004;23;20171;-91
2022/08/06 02:24:02;;;;;;;8.70;6.13;;;;;;;;;;6241410;23;20163;-92
2022/08/06 02:27:07;;;;;;;9.73;5.85;;;;;;;;;;6240108;23;20231;-90
2022/08/06 02:30:14;;;;;;;10.65;5.72;;;;;;;;;;6240528;23;20182;-90
2022/08/06 02:33:20;;;;;;;11.48;5.82;;;;;;;;;;6238612;23;20189;-93
2022/08/06 02:36:27;;;;;;;8.57;5.65;;;;;;;;;;6241233;23;20155;-92
2022/08/06 02:39:34;;;;;;;9.52;6.00;;;;;;;;;;6240806;23;20223;-92
2022/08/06 02:42:41;;;;;;;9.10;5.65;;;;;;;;;;6240946;22;20170;-93
2022/08/06 02:49:42;;;;;;;10.57;5.25;;;;;;;;;;6242590;22;20134;-92
2022/08/06 02:52:49;;;;;;;15.07;6.47;;;;;;;;;;6240429;23;20665;-92
2022/08/06 02:55:56;;;;;;;9.13;5.55;;;;;;;;;;6240940;23;20326;-91
2022/08/06 02:59:02;;;;;;;12.88;5.60;;;;;;;;;;6240545;23;20174;-93
2022/08/06 03:02:10;;;;;;;9.32;5.47;;;;;;;;;;6241329;23;20171;-91
2022/08/06 03:05:20;;;;;;;10.20;5.47;;;;;;;;;;6241677;22;20163;-92
2022/08/06 03:08:26;;;;;;;10.85;5.40;;;;;;;;;;6240913;23;20591;-91
2022/08/06 03:11:32;;;;;;;6.80;5.05;;;;;;;;;;6240204;23;20151;-92
2022/08/06 03:14:39;;;;;;;8.85;5.50;;;;;;;;;;6241680;22;20190;-92
2022/08/06 03:17:45;;;;;;;9.00;4.90;;;;;;;;;;6241221;23;20278;-92
2022/08/06 03:20:53;;;;;;;9.55;5.00;;;;;;;;;;6241483;23;20245;-90
2022/08/06 03:24:00;;;;;;;9.02;4.80;;;;;;;;;;6239601;23;20166;-93
2022/08/06 03:27:05;;;;;;;7.57;5.20;;;;;;;;;;6240128;23;20233;-92
2022/08/06 03:30:11;;;;;;;9.27;5.00;;;;;;;;;;6240366;23;20179;-93
2022/08/06 03:33:18;;;;;;;8.40;4.82;;;;;;;;;;6240676;22;20652;-91
2022/08/06 03:36:26;;;;;;;10.40;4.57;;;;;;;;;;6237898;23;20167;-91
2022/08/06 03:39:32;;;;;;;5.85;4.60;;;;;;;;;;6239322;23;20187;-91
2022/08/06 03:42:38;;;;;;;11.52;5.60;;;;;;;;;;6239155;23;20170;-92
2022/08/06 03:45:46;;;;;;;9.50;5.45;;;;;;;;;;6239632;23;20249;-90
2022/08/06 03:48:52;;;;;;;7.90;5.00;;;;;;;;;;6240903;22;20166;-91
2022/08/06 03:52:00;;;;;;;9.25;4.95;;;;;;;;;;6239555;23;20167;-91
2022/08/06 03:55:06;;;;;;;7.43;4.85;;;;;;;;;;6239705;23;20197;-92
2022/08/06 03:58:13;;;;;;;7.60;5.10;;;;;;;;;;6238684;23;20174;-92
2022/08/06 04:05:34;;;;;;;10.70;4.95;;;;;;;;;;6259470;23;20154;-93
2022/08/06 04:08:42;;;;;;;12.05;4.88;;;;;;;;;;6240214;23;20182;-93
2022/08/06 04:11:47;;;;;;;8.00;5.32;;;;;;;;;;6240650;23;20177;-92
2022/08/06 04:14:53;;;;;;;8.40;5.28;;;;;;;;;;6243216;23;20284;-92
2022/08/06 04:17:59;;;;;;;8.98;5.10;;;;;;;;;;6243672;23;20166;-93
2022/08/06 04:21:07;;;;;;;7.25;4.80;;;;;;;;;;6242781;23;20610;-92
2022/08/06 13:44:25;;;;;;;1.10;1.00;;;;;;;;;;6213577;22;20375;31
2022/08/06 13:47:32;;;;;;;1.63;0.95;;;;;;;;;;6168688;23;20169;-89
2022/08/06 13:50:37;;;;;;;1.45;0.90;;;;;;;;;;6170586;23;20217;-89
2022/08/06 13:53:42;;;;;;;2.22;0.90;;;;;;;;;;6152551;23;20164;-90
2022/08/06 13:56:48;;;;;;;6.32;1.17;;;;;;;;;;6171032;23;20169;-91
2022/08/06 13:59:53;;;;;;;1.45;0.98;;;;;;;;;;6158007;23;20169;-90
